This is the latest recevied weather packets stored in our database for station/object M0TUM-1. If no packets are shown the sender has not sent any weather packets the latest 10 day(s).
| Time | Temp. | Humidity | Pressure | Rain* | Wind** | Luminosity | Snow |
|---|---|---|---|---|---|---|---|
| 1777865552 | 10.56° C | 90% | 1011.8 hPa | 0 mm | - | 0 W/m² | - |
| 1777846760 | 12.22° C | 84% | 1011 hPa | 0 mm | - | 0 W/m² | - |
| 1777843429 | 12.78° C | 82% | 1010.5 hPa | 0 mm | - | 0 W/m² | - |
| 1777843125 | 12.78° C | 82% | 1010.4 hPa | 0 mm | - | 0 W/m² | - |
| 1777841910 | 12.78° C | 81% | 1010.1 hPa | 0 mm | - | 0 W/m² | - |
| 1777841607 | 13.33° C | 81% | 1010.2 hPa | 0 mm | - | 0 W/m² | - |
| 1777840698 | 13.33° C | 78% | 1010 hPa | 0 mm | - | 0 W/m² | - |
| 1777840092 | 13.89° C | 75% | 1010 hPa | 0 mm | - | 0 W/m² | - |
| 1777839790 | 13.89° C | 73% | 1010.2 hPa | 0 mm | - | 0 W/m² | - |
| 1777839185 | 13.89° C | 71% | 1009.8 hPa | 0 mm | - | 0 W/m² | - |
| 1777838578 | 14.44° C | 70% | 1009.9 hPa | 0 mm | - | 0 W/m² | - |
| 1777837972 | 14.44° C | 68% | 1009.8 hPa | 0 mm | - | 0 W/m² | - |
| 1777835846 | 15.56° C | 64% | 1009.3 hPa | 0 mm | - | 5 W/m² | - |
| 1777834936 | 16.11° C | 63% | 1009.2 hPa | 0 mm | - | 12 W/m² | - |
| 1777834634 | 16.11° C | 62% | 1009 hPa | 0 mm | - | 16 W/m² | - |
| 1777834329 | 16.67° C | 61% | 1009.2 hPa | 0 mm | - | 19 W/m² | - |
| 1777833114 | 17.22° C | 59% | 1009.1 hPa | 0 mm | - | 52 W/m² | - |
| 1777832510 | 17.78° C | 59% | 1009.1 hPa | 0 mm | - | 73 W/m² | - |
| 1777829781 | 16.67° C | 61% | 1008.8 hPa | 0 mm | - | 70 W/m² | - |
| 1777829175 | 17.22° C | 61% | 1009 hPa | 0 mm | - | 109 W/m² | - |
| 1777828569 | 17.22° C | 61% | 1008.8 hPa | 0 mm | - | 134 W/m² | - |
| 1777827963 | 17.22° C | 61% | 1008.9 hPa | 0 mm | - | 121 W/m² | - |
| 1777827659 | 17.22° C | 61% | 1008.7 hPa | 0 mm | - | 101 W/m² | - |
| 1777826144 | 17.78° C | 62% | 1008.6 hPa | 0 mm | - | 132 W/m² | - |
| 1777825841 | 17.78° C | 62% | 1008.5 hPa | 0 mm | - | 146 W/m² | - |
* Rain latest hour (hover to see other rain measurements)
** Current wind speed in m/s (hover to see current wind gust speed)